Time,TemperatureF,DewpointF,PressureIn,WindDirection,WindDirectionDegrees,WindSpeedMPH,WindSpeedGustMPH,Humidity,HourlyPrecipIn,Conditions,Clouds,dailyrainin,SoftwareType,DateUTC
2013-02-23 00:03:00,47.5,42.3,29.70,NW,315,0.0,0.0,82,0.00,,,0.00,meteohub,2013-02-23 08:03:00,
2013-02-23 00:08:00,47.7,42.4,29.69,SE,135,0.0,0.0,82,0.00,,,0.00,meteohub,2013-02-23 08:08:00,
2013-02-23 00:13:00,47.7,42.4,29.69,WSW,248,0.0,0.0,82,0.00,,,0.00,meteohub,2013-02-23 08:13:00,
2013-02-23 00:19:00,47.7,42.4,29.70,NW,315,0.0,0.0,82,0.00,,,0.00,meteohub,2013-02-23 08:19:00,
2013-02-23 00:24:00,47.8,42.6,29.70,NW,315,0.0,0.0,82,0.00,,,0.00,meteohub,2013-02-23 08:24:00,
2013-02-23 00:29:00,48.0,42.8,29.70,NW,315,0.0,0.0,82,0.00,,,0.00,meteohub,2013-02-23 08:29:00,
2013-02-23 00:34:00,48.2,42.6,29.70,West,270,0.0,0.0,81,0.00,,,0.00,meteohub,2013-02-23 08:34:00,
2013-02-23 00:39:00,48.4,42.4,29.70,West,270,0.0,0.0,80,0.00,,,0.00,meteohub,2013-02-23 08:39:00,
2013-02-23 00:44:00,48.4,42.4,29.69,NE,45,0.0,0.0,80,0.00,,,0.00,meteohub,2013-02-23 08:44:00,
2013-02-23 00:49:00,48.4,42.4,29.69,NW,315,0.0,0.0,80,0.00,,,0.00,meteohub,2013-02-23 08:49:00,
2013-02-23 00:54:00,48.4,42.4,29.69,SW,225,0.0,0.0,80,0.00,,,0.00,meteohub,2013-02-23 08:54:00,
2013-02-23 00:59:00,48.2,42.3,29.70,North,0,0.0,0.0,80,0.00,,,0.00,meteohub,2013-02-23 08:59:00,
2013-02-23 01:04:00,48.0,42.4,29.69,NW,315,0.0,0.0,81,0.00,,,0.00,meteohub,2013-02-23 09:04:00,
2013-02-23 01:09:00,47.8,42.3,29.69,North,0,0.0,0.0,81,0.00,,,0.00,meteohub,2013-02-23 09:09:00,
2013-02-23 01:14:00,47.8,42.3,29.69,South,180,0.0,0.0,81,0.00,,,0.00,meteohub,2013-02-23 09:14:00,
2013-02-23 01:19:00,47.7,42.1,29.70,West,270,0.0,0.0,81,0.00,,,0.00,meteohub,2013-02-23 09:19:00,
2013-02-23 01:24:00,47.5,41.9,29.69,North,0,0.0,0.0,81,0.00,,,0.00,meteohub,2013-02-23 09:24:00,
2013-02-23 01:29:00,47.3,42.1,29.69,West,270,0.0,0.0,82,0.00,,,0.00,meteohub,2013-02-23 09:29:00,
2013-02-23 01:34:00,47.1,41.9,29.69,West,270,0.0,0.0,82,0.00,,,0.00,meteohub,2013-02-23 09:34:00,
2013-02-23 01:40:00,46.9,41.7,29.69,South,180,0.0,0.0,82,0.00,,,0.00,meteohub,2013-02-23 09:40:00,
2013-02-23 01:45:00,46.8,41.5,29.69,South,180,0.0,0.0,82,0.00,,,0.00,meteohub,2013-02-23 09:45:00,
2013-02-23 01:50:00,46.6,41.4,29.69,South,180,0.0,0.0,82,0.00,,,0.00,meteohub,2013-02-23 09:50:00,
2013-02-23 01:55:00,46.6,41.4,29.69,South,180,0.0,0.0,82,0.00,,,0.00,meteohub,2013-02-23 09:55:00,
2013-02-23 02:00:00,46.4,41.5,29.69,South,180,0.0,0.0,83,0.00,,,0.00,meteohub,2013-02-23 10:00:00,
2013-02-23 02:05:00,46.4,41.5,29.69,South,180,0.0,0.0,83,0.00,,,0.00,meteohub,2013-02-23 10:05:00,
2013-02-23 02:10:00,46.2,41.4,29.69,South,180,0.0,0.0,83,0.00,,,0.00,meteohub,2013-02-23 10:10:00,
2013-02-23 02:15:00,46.0,41.2,29.68,South,180,0.0,0.0,83,0.00,,,0.00,meteohub,2013-02-23 10:15:00,
2013-02-23 02:20:00,45.9,41.0,29.68,South,180,0.0,0.0,83,0.00,,,0.00,meteohub,2013-02-23 10:20:00,
2013-02-23 02:25:00,45.9,41.0,29.68,South,180,0.0,0.0,83,0.00,,,0.00,meteohub,2013-02-23 10:25:00,
2013-02-23 02:30:00,45.9,41.4,29.68,South,180,0.0,0.0,84,0.00,,,0.00,meteohub,2013-02-23 10:30:00,
2013-02-23 02:35:00,45.9,41.4,29.68,South,180,0.0,0.0,84,0.00,,,0.00,meteohub,2013-02-23 10:35:00,
2013-02-23 02:40:00,45.9,41.4,29.68,South,180,0.0,0.0,84,0.00,,,0.00,meteohub,2013-02-23 10:40:00,
2013-02-23 02:45:00,45.9,41.5,29.69,South,180,0.0,0.0,85,0.00,,,0.00,meteohub,2013-02-23 10:45:00,
2013-02-23 02:50:00,45.9,41.5,29.69,South,180,0.0,0.0,85,0.00,,,0.00,meteohub,2013-02-23 10:50:00,
2013-02-23 02:55:00,46.0,41.7,29.68,South,180,0.0,0.0,85,0.00,,,0.00,meteohub,2013-02-23 10:55:00,
2013-02-23 03:01:00,46.0,41.7,29.68,South,180,0.0,0.0,85,0.00,,,0.00,meteohub,2013-02-23 11:01:00,
2013-02-23 03:06:00,46.2,42.3,29.68,South,180,0.0,0.0,86,0.00,,,0.00,meteohub,2013-02-23 11:06:00,
2013-02-23 03:11:00,46.2,42.3,29.68,South,180,0.0,0.0,86,0.00,,,0.00,meteohub,2013-02-23 11:11:00,
2013-02-23 03:16:00,46.4,42.1,29.68,NW,315,0.0,0.0,85,0.00,,,0.00,meteohub,2013-02-23 11:16:00,
2013-02-23 03:21:00,46.4,42.1,29.68,NW,315,0.0,0.0,85,0.00,,,0.00,meteohub,2013-02-23 11:21:00,
2013-02-23 03:26:00,46.4,42.1,29.68,NW,315,0.0,0.0,85,0.00,,,0.00,meteohub,2013-02-23 11:26:00,
2013-02-23 03:31:00,46.6,42.3,29.68,SSW,203,0.0,0.0,85,0.00,,,0.00,meteohub,2013-02-23 11:31:00,
2013-02-23 03:36:00,46.6,42.3,29.68,SSW,203,0.0,0.0,85,0.00,,,0.00,meteohub,2013-02-23 11:36:00,
2013-02-23 03:41:00,46.6,42.3,29.67,SSW,203,0.0,0.0,85,0.00,,,0.00,meteohub,2013-02-23 11:41:00,
2013-02-23 03:46:00,46.4,42.1,29.67,SSW,203,0.0,0.0,85,0.00,,,0.00,meteohub,2013-02-23 11:46:00,
2013-02-23 03:51:00,46.2,41.9,29.67,SSW,203,0.0,0.0,85,0.00,,,0.00,meteohub,2013-02-23 11:51:00,
2013-02-23 03:56:00,45.9,41.5,29.66,SSW,203,0.0,0.0,85,0.00,,,0.00,meteohub,2013-02-23 11:56:00,
2013-02-23 04:01:00,45.7,41.4,29.66,SSW,203,0.0,0.0,85,0.00,,,0.00,meteohub,2013-02-23 12:01:00,
2013-02-23 04:06:00,45.5,41.2,29.67,SSW,203,0.0,0.0,85,0.00,,,0.00,meteohub,2013-02-23 12:06:00,
2013-02-23 04:12:00,45.5,41.2,29.66,SSW,203,0.0,0.0,85,0.00,,,0.00,meteohub,2013-02-23 12:12:00,
2013-02-23 04:17:00,45.5,41.2,29.67,SSW,203,0.0,0.0,85,0.00,,,0.00,meteohub,2013-02-23 12:17:00,
2013-02-23 04:22:00,45.5,41.2,29.67,SSW,203,0.0,0.0,85,0.00,,,0.00,meteohub,2013-02-23 12:22:00,
2013-02-23 04:27:00,45.7,41.7,29.67,West,270,0.0,0.0,86,0.00,,,0.00,meteohub,2013-02-23 12:27:00,
2013-02-23 04:32:00,45.9,42.3,29.66,West,270,0.0,0.0,87,0.00,,,0.00,meteohub,2013-02-23 12:32:00,
2013-02-23 04:37:00,45.9,42.3,29.66,West,270,0.0,0.0,87,0.00,,,0.00,meteohub,2013-02-23 12:37:00,
2013-02-23 04:42:00,45.9,42.3,29.66,West,270,0.0,0.0,87,0.00,,,0.00,meteohub,2013-02-23 12:42:00,
2013-02-23 04:47:00,45.9,42.3,29.66,West,270,0.0,0.0,87,0.00,,,0.00,meteohub,2013-02-23 12:47:00,
2013-02-23 04:52:00,45.9,42.3,29.66,West,270,0.0,0.0,87,0.00,,,0.00,meteohub,2013-02-23 12:52:00,
2013-02-23 04:57:00,45.9,42.3,29.66,West,270,0.0,0.0,87,0.00,,,0.00,meteohub,2013-02-23 12:57:00,
2013-02-23 05:02:00,45.9,42.3,29.66,West,270,0.0,0.0,87,0.00,,,0.00,meteohub,2013-02-23 13:02:00,
2013-02-23 05:07:00,45.9,42.4,29.66,West,270,0.0,0.0,88,0.00,,,0.00,meteohub,2013-02-23 13:07:00,
2013-02-23 05:12:00,45.9,42.4,29.66,West,270,0.0,0.0,88,0.00,,,0.00,meteohub,2013-02-23 13:12:00,
2013-02-23 05:17:00,45.9,42.4,29.66,West,270,0.0,0.0,88,0.00,,,0.00,meteohub,2013-02-23 13:17:00,
2013-02-23 05:22:00,46.0,42.6,29.66,West,270,0.0,0.0,88,0.00,,,0.00,meteohub,2013-02-23 13:22:00,
2013-02-23 05:27:00,46.0,43.0,29.66,West,270,0.0,0.0,89,0.00,,,0.00,meteohub,2013-02-23 13:27:00,
2013-02-23 05:32:00,46.0,43.0,29.66,West,270,0.0,0.0,89,0.00,,,0.00,meteohub,2013-02-23 13:32:00,
2013-02-23 05:37:00,46.0,43.0,29.66,West,270,0.0,0.0,89,0.00,,,0.00,meteohub,2013-02-23 13:37:00,
2013-02-23 05:42:00,46.0,43.0,29.66,West,270,0.0,0.0,89,0.00,,,0.00,meteohub,2013-02-23 13:42:00,
2013-02-23 05:47:00,46.0,43.3,29.66,West,270,0.0,0.0,90,0.00,,,0.00,meteohub,2013-02-23 13:47:00,
2013-02-23 05:52:00,46.2,43.5,29.67,West,270,0.0,0.0,90,0.00,,,0.00,meteohub,2013-02-23 13:52:00,
2013-02-23 05:57:00,46.2,43.5,29.67,West,270,0.0,0.0,90,0.00,,,0.00,meteohub,2013-02-23 13:57:00,
2013-02-23 06:02:00,46.2,43.5,29.67,West,270,0.0,0.0,90,0.00,,,0.00,meteohub,2013-02-23 14:02:00,
2013-02-23 06:07:00,46.0,43.3,29.67,West,270,0.0,0.0,90,0.00,,,0.00,meteohub,2013-02-23 14:07:00,
2013-02-23 06:12:00,46.0,43.3,29.67,West,270,0.0,0.0,90,0.00,,,0.00,meteohub,2013-02-23 14:12:00,
2013-02-23 06:17:00,45.9,43.2,29.67,West,270,0.0,0.0,90,0.00,,,0.00,meteohub,2013-02-23 14:17:00,
2013-02-23 06:22:00,45.7,43.0,29.68,West,270,0.0,0.0,90,0.00,,,0.00,meteohub,2013-02-23 14:22:00,
2013-02-23 06:27:00,45.5,42.8,29.68,NW,315,0.0,0.0,90,0.00,,,0.00,meteohub,2013-02-23 14:27:00,
2013-02-23 06:32:00,45.5,43.0,29.68,West,270,0.0,0.0,91,0.00,,,0.00,meteohub,2013-02-23 14:32:00,
2013-02-23 06:37:00,45.3,42.8,29.67,West,270,0.0,0.0,91,0.00,,,0.00,meteohub,2013-02-23 14:37:00,
2013-02-23 06:42:00,45.0,42.4,29.67,West,270,0.0,0.0,91,0.00,,,0.00,meteohub,2013-02-23 14:42:00,
2013-02-23 06:47:00,44.6,42.1,29.67,West,270,0.0,0.0,91,0.00,,,0.00,meteohub,2013-02-23 14:47:00,
2013-02-23 06:52:00,44.6,42.1,29.67,West,270,0.0,0.0,91,0.00,,,0.00,meteohub,2013-02-23 14:52:00,
2013-02-23 06:58:00,44.4,42.3,29.67,West,270,0.0,0.0,92,0.00,,,0.00,meteohub,2013-02-23 14:58:00,
2013-02-23 07:03:00,44.2,42.1,29.67,West,270,0.0,0.0,92,0.00,,,0.00,meteohub,2013-02-23 15:03:00,
2013-02-23 07:08:00,44.1,41.9,29.68,North,0,0.0,0.0,92,0.00,,,0.00,meteohub,2013-02-23 15:08:00,
2013-02-23 07:13:00,44.1,41.9,29.68,NW,315,0.0,0.0,92,0.00,,,0.00,meteohub,2013-02-23 15:13:00,
2013-02-23 07:18:00,44.1,42.1,29.68,West,270,0.0,0.0,93,0.00,,,0.00,meteohub,2013-02-23 15:18:00,
2013-02-23 07:23:00,44.1,42.1,29.69,SW,225,0.0,0.0,93,0.00,,,0.00,meteohub,2013-02-23 15:23:00,
2013-02-23 07:28:00,44.1,42.1,29.68,SW,225,0.0,0.0,93,0.00,,,0.00,meteohub,2013-02-23 15:28:00,
2013-02-23 07:33:00,44.1,42.1,29.68,NW,315,0.0,0.0,93,0.00,,,0.00,meteohub,2013-02-23 15:33:00,
2013-02-23 07:38:00,44.2,42.3,29.68,NW,315,0.0,0.0,93,0.00,,,0.00,meteohub,2013-02-23 15:38:00,
2013-02-23 07:43:00,44.2,42.1,29.68,SW,225,0.0,0.0,92,0.00,,,0.00,meteohub,2013-02-23 15:43:00,
2013-02-23 07:48:00,44.4,42.3,29.68,South,180,0.0,0.0,92,0.00,,,0.00,meteohub,2013-02-23 15:48:00,
2013-02-23 07:54:00,44.6,42.1,29.69,NW,315,0.0,0.0,91,0.00,,,0.00,meteohub,2013-02-23 15:54:00,
2013-02-23 07:59:00,44.8,42.1,29.69,West,270,0.0,0.0,90,0.00,,,0.00,meteohub,2013-02-23 15:59:00,
2013-02-23 08:04:00,44.8,41.7,29.69,SW,225,0.0,0.0,89,0.00,,,0.00,meteohub,2013-02-23 16:04:00,
2013-02-23 08:09:00,45.0,41.9,29.69,West,270,0.0,0.0,89,0.00,,,0.00,meteohub,2013-02-23 16:09:00,
2013-02-23 08:14:00,45.1,41.7,29.69,NW,315,0.0,0.0,88,0.00,,,0.00,meteohub,2013-02-23 16:14:00,
2013-02-23 08:19:00,45.5,42.1,29.69,SSE,158,0.0,0.0,88,0.00,,,0.00,meteohub,2013-02-23 16:19:00,
2013-02-23 08:24:00,45.7,42.1,29.69,North,0,0.0,0.0,87,0.00,,,0.00,meteohub,2013-02-23 16:24:00,
2013-02-23 08:29:00,45.9,41.9,29.70,West,270,0.0,0.0,86,0.00,,,0.00,meteohub,2013-02-23 16:29:00,
2013-02-23 08:34:00,46.2,41.9,29.69,West,270,0.0,0.0,85,0.00,,,0.00,meteohub,2013-02-23 16:34:00,
2013-02-23 08:39:00,46.2,41.7,29.69,SW,225,0.0,0.0,84,0.00,,,0.00,meteohub,2013-02-23 16:39:00,
2013-02-23 08:44:00,46.6,42.1,29.70,SW,225,0.0,0.0,84,0.00,,,0.00,meteohub,2013-02-23 16:44:00,
2013-02-23 08:49:00,46.9,42.1,29.70,West,270,0.0,0.0,83,0.00,,,0.00,meteohub,2013-02-23 16:49:00,
2013-02-23 08:54:00,47.3,42.4,29.70,NW,315,0.0,0.0,83,0.00,,,0.00,meteohub,2013-02-23 16:54:00,
2013-02-23 08:59:00,47.5,42.3,29.70,SW,225,0.0,0.0,82,0.00,,,0.00,meteohub,2013-02-23 16:59:00,
2013-02-23 09:04:00,47.8,42.6,29.70,North,0,0.0,0.0,82,0.00,,,0.00,meteohub,2013-02-23 17:04:00,
2013-02-23 09:09:00,48.0,42.8,29.70,East,90,0.0,0.0,82,0.00,,,0.00,meteohub,2013-02-23 17:09:00,
2013-02-23 09:14:00,48.2,42.3,29.70,NE,45,0.0,0.0,80,0.00,,,0.00,meteohub,2013-02-23 17:14:00,
2013-02-23 09:19:00,48.6,42.1,29.70,NW,315,0.0,0.0,78,0.00,,,0.00,meteohub,2013-02-23 17:19:00,
2013-02-23 09:25:00,48.7,42.3,29.70,WSW,248,0.0,0.0,78,0.00,,,0.00,meteohub,2013-02-23 17:25:00,
2013-02-23 09:30:00,49.1,42.3,29.70,SW,225,0.0,0.0,77,0.00,,,0.00,meteohub,2013-02-23 17:30:00,
2013-02-23 09:35:00,49.6,42.4,29.70,West,270,0.0,0.0,76,0.00,,,0.00,meteohub,2013-02-23 17:35:00,
2013-02-23 09:40:00,50.0,42.1,29.70,West,270,0.0,0.0,74,0.00,,,0.00,meteohub,2013-02-23 17:40:00,
2013-02-23 09:45:00,50.5,42.6,29.70,NW,315,0.0,0.0,74,0.00,,,0.00,meteohub,2013-02-23 17:45:00,
2013-02-23 09:50:00,50.9,42.6,29.69,NE,45,0.0,0.0,73,0.00,,,0.00,meteohub,2013-02-23 17:50:00,
2013-02-23 09:55:00,51.3,43.0,29.69,NE,45,0.0,0.0,73,0.00,,,0.00,meteohub,2013-02-23 17:55:00,
2013-02-23 10:00:00,51.4,42.8,29.69,SW,225,0.0,0.0,72,0.00,,,0.00,meteohub,2013-02-23 18:00:00,
2013-02-23 10:05:00,51.8,42.3,29.69,South,180,0.0,0.0,70,0.00,,,0.00,meteohub,2013-02-23 18:05:00,
2013-02-23 10:10:00,52.5,43.0,29.69,North,0,0.0,0.0,70,0.00,,,0.00,meteohub,2013-02-23 18:10:00,
2013-02-23 10:15:00,52.9,42.3,29.69,South,180,0.0,0.0,67,0.00,,,0.00,meteohub,2013-02-23 18:15:00,
2013-02-23 10:20:00,53.2,41.4,29.69,NE,45,0.0,0.0,64,0.00,,,0.00,meteohub,2013-02-23 18:20:00,
2013-02-23 10:25:00,53.4,40.6,29.68,NW,315,0.0,0.0,62,0.00,,,0.00,meteohub,2013-02-23 18:25:00,
2013-02-23 10:30:00,54.0,41.2,29.69,NNW,338,0.0,0.0,62,0.00,,,0.00,meteohub,2013-02-23 18:30:00,
2013-02-23 10:35:00,54.7,40.6,29.68,South,180,0.0,0.0,59,0.00,,,0.00,meteohub,2013-02-23 18:35:00,
2013-02-23 10:40:00,55.4,40.8,29.68,North,0,0.0,0.0,58,0.00,,,0.00,meteohub,2013-02-23 18:40:00,
2013-02-23 10:45:00,56.1,41.2,29.68,East,90,0.0,0.0,57,0.00,,,0.00,meteohub,2013-02-23 18:45:00,
2013-02-23 10:50:00,56.7,41.2,29.68,SE,135,0.0,0.0,56,0.00,,,0.00,meteohub,2013-02-23 18:50:00,
2013-02-23 10:55:00,57.6,41.0,29.68,East,90,0.0,0.0,54,0.00,,,0.00,meteohub,2013-02-23 18:55:00,
2013-02-23 11:01:00,58.3,41.7,29.68,SW,225,0.0,0.0,54,0.00,,,0.00,meteohub,2013-02-23 19:01:00,
2013-02-23 11:06:00,59.0,41.9,29.68,SW,225,0.0,0.0,53,0.00,,,0.00,meteohub,2013-02-23 19:06:00,
2013-02-23 11:11:00,59.5,41.9,29.68,NW,315,0.0,0.0,52,0.00,,,0.00,meteohub,2013-02-23 19:11:00,
2013-02-23 11:16:00,59.9,42.3,29.67,West,270,0.0,0.0,52,0.00,,,0.00,meteohub,2013-02-23 19:16:00,
2013-02-23 11:21:00,60.3,41.5,29.67,West,270,0.0,0.0,50,0.00,,,0.00,meteohub,2013-02-23 19:21:00,
2013-02-23 11:26:00,60.4,41.7,29.67,SE,135,0.0,0.0,50,0.00,,,0.00,meteohub,2013-02-23 19:26:00,
2013-02-23 11:31:00,61.0,41.2,29.67,West,270,0.0,0.0,48,0.00,,,0.00,meteohub,2013-02-23 19:31:00,
2013-02-23 11:36:00,61.2,40.3,29.67,NW,315,0.0,0.0,46,0.00,,,0.00,meteohub,2013-02-23 19:36:00,
2013-02-23 11:41:00,61.2,40.8,29.67,East,90,0.0,0.0,47,0.00,,,0.00,meteohub,2013-02-23 19:41:00,
2013-02-23 11:46:00,61.3,40.5,29.67,South,180,0.0,0.0,46,0.00,,,0.00,meteohub,2013-02-23 19:46:00,
2013-02-23 11:51:00,61.7,41.2,29.66,South,180,0.0,0.0,47,0.00,,,0.00,meteohub,2013-02-23 19:51:00,
2013-02-23 11:56:00,61.9,40.3,29.65,SSE,158,0.0,0.0,45,0.00,,,0.00,meteohub,2013-02-23 19:56:00,
2013-02-23 12:01:00,62.1,40.5,29.65,NW,315,0.0,0.0,45,0.00,,,0.00,meteohub,2013-02-23 20:01:00,
2013-02-23 12:06:00,62.2,40.6,29.65,SW,225,0.0,0.0,45,0.00,,,0.00,meteohub,2013-02-23 20:06:00,
2013-02-23 12:11:00,62.8,39.9,29.64,South,180,0.0,0.0,43,0.00,,,0.00,meteohub,2013-02-23 20:11:00,
2013-02-23 12:16:00,63.3,39.9,29.64,West,270,0.0,0.0,42,0.00,,,0.00,meteohub,2013-02-23 20:16:00,
2013-02-23 12:21:00,63.1,38.5,29.64,West,270,0.0,0.0,40,0.00,,,0.00,meteohub,2013-02-23 20:21:00,
2013-02-23 12:26:00,63.3,38.7,29.63,SE,135,0.0,0.0,40,0.00,,,0.00,meteohub,2013-02-23 20:26:00,
2013-02-23 12:31:00,63.9,41.0,29.63,West,270,0.0,0.0,43,0.00,,,0.00,meteohub,2013-02-23 20:31:00,
2013-02-23 12:37:00,64.2,39.4,29.63,North,0,0.0,0.0,40,0.00,,,0.00,meteohub,2013-02-23 20:37:00,
2013-02-23 12:42:00,64.4,39.6,29.62,SW,225,0.0,0.0,40,0.00,,,0.00,meteohub,2013-02-23 20:42:00,
2013-02-23 12:47:00,64.4,38.8,29.62,West,270,0.0,0.0,39,0.00,,,0.00,meteohub,2013-02-23 20:47:00,
2013-02-23 12:52:00,64.8,40.5,29.62,West,270,0.0,0.0,41,0.00,,,0.00,meteohub,2013-02-23 20:52:00,
2013-02-23 12:57:00,65.3,39.0,29.62,South,180,0.0,0.0,38,0.00,,,0.00,meteohub,2013-02-23 20:57:00,
2013-02-23 13:02:00,65.7,40.1,29.61,East,90,0.0,0.0,39,0.00,,,0.00,meteohub,2013-02-23 21:02:00,
2013-02-23 13:07:00,66.7,42.3,29.61,ENE,68,0.0,0.0,41,0.00,,,0.00,meteohub,2013-02-23 21:07:00,
2013-02-23 13:12:00,67.1,38.5,29.61,WNW,293,0.0,0.0,35,0.00,,,0.00,meteohub,2013-02-23 21:12:00,
2013-02-23 13:17:00,66.7,39.0,29.60,SW,225,0.0,0.0,36,0.00,,,0.00,meteohub,2013-02-23 21:17:00,
2013-02-23 13:22:00,66.9,39.0,29.60,West,270,0.0,0.0,36,0.00,,,0.00,meteohub,2013-02-23 21:22:00,
2013-02-23 13:27:00,67.3,37.9,29.60,South,180,0.0,0.0,34,0.00,,,0.00,meteohub,2013-02-23 21:27:00,
2013-02-23 13:32:00,67.1,37.8,29.59,East,90,0.0,0.0,34,0.00,,,0.00,meteohub,2013-02-23 21:32:00,
2013-02-23 13:37:00,67.3,37.9,29.59,West,270,0.0,0.0,34,0.00,,,0.00,meteohub,2013-02-23 21:37:00,
2013-02-23 13:42:00,67.5,38.1,29.59,NE,45,0.0,0.0,34,0.00,,,0.00,meteohub,2013-02-23 21:42:00,
2013-02-23 13:47:00,66.9,36.9,29.58,NE,45,0.0,0.0,33,0.00,,,0.00,meteohub,2013-02-23 21:47:00,
2013-02-23 13:52:00,66.7,38.3,29.58,SSE,158,0.0,0.0,35,0.00,,,0.00,meteohub,2013-02-23 21:52:00,
2013-02-23 13:57:00,67.1,38.5,29.58,West,270,0.0,0.0,35,0.00,,,0.00,meteohub,2013-02-23 21:57:00,
2013-02-23 14:02:00,67.3,38.7,29.58,West,270,0.0,0.0,35,0.00,,,0.00,meteohub,2013-02-23 22:02:00,
2013-02-23 14:07:00,67.6,39.7,29.58,East,90,0.0,0.0,36,0.00,,,0.00,meteohub,2013-02-23 22:07:00,
2013-02-23 14:12:00,67.6,38.3,29.58,SW,225,0.0,0.0,34,0.00,,,0.00,meteohub,2013-02-23 22:12:00,
2013-02-23 14:17:00,67.5,38.1,29.58,SE,135,0.0,0.0,34,0.00,,,0.00,meteohub,2013-02-23 22:17:00,
2013-02-23 14:22:00,67.5,38.1,29.58,NW,315,0.0,0.0,34,0.00,,,0.00,meteohub,2013-02-23 22:22:00,
2013-02-23 14:27:00,67.1,37.0,29.58,NE,45,0.0,0.0,33,0.00,,,0.00,meteohub,2013-02-23 22:27:00,
2013-02-23 14:32:00,67.3,38.7,29.57,WNW,293,0.0,0.0,35,0.00,,,0.00,meteohub,2013-02-23 22:32:00,
2013-02-23 14:37:00,67.3,39.4,29.57,SW,225,0.0,0.0,36,0.00,,,0.00,meteohub,2013-02-23 22:37:00,
2013-02-23 14:42:00,67.5,38.8,29.57,NE,45,0.0,0.0,35,0.00,,,0.00,meteohub,2013-02-23 22:42:00,
2013-02-23 14:47:00,67.3,39.4,29.57,West,270,0.0,0.0,36,0.00,,,0.00,meteohub,2013-02-23 22:47:00,
2013-02-23 14:52:00,67.3,37.9,29.57,WSW,248,0.0,0.0,34,0.00,,,0.00,meteohub,2013-02-23 22:52:00,
2013-02-23 14:57:00,66.7,37.4,29.56,East,90,0.0,0.0,34,0.00,,,0.00,meteohub,2013-02-23 22:57:00,
2013-02-23 15:02:00,66.6,37.4,29.57,WSW,248,0.0,0.0,34,0.00,,,0.00,meteohub,2013-02-23 23:02:00,
2013-02-23 15:07:00,66.4,37.9,29.56,West,270,0.0,0.0,35,0.00,,,0.00,meteohub,2013-02-23 23:07:00,
2013-02-23 15:12:00,66.4,37.9,29.56,SE,135,0.0,0.0,35,0.00,,,0.00,meteohub,2013-02-23 23:12:00,
2013-02-23 15:17:00,65.8,36.7,29.56,SE,135,0.0,0.0,34,0.00,,,0.00,meteohub,2013-02-23 23:17:00,
2013-02-23 15:22:00,65.7,37.9,29.56,South,180,0.0,0.0,36,0.00,,,0.00,meteohub,2013-02-23 23:22:00,
2013-02-23 15:27:00,65.5,38.5,29.56,East,90,0.0,0.0,37,0.00,,,0.00,meteohub,2013-02-23 23:27:00,
2013-02-23 15:32:00,64.9,38.1,29.56,West,270,0.0,0.0,37,0.00,,,0.00,meteohub,2013-02-23 23:32:00,
2013-02-23 15:37:00,64.6,37.8,29.55,East,90,0.0,0.0,37,0.00,,,0.00,meteohub,2013-02-23 23:37:00,
2013-02-23 15:42:00,64.6,37.0,29.55,NW,315,0.0,0.0,36,0.00,,,0.00,meteohub,2013-02-23 23:42:00,
2013-02-23 15:47:00,64.6,38.5,29.55,NW,315,0.0,0.0,38,0.00,,,0.00,meteohub,2013-02-23 23:47:00,
2013-02-23 15:52:00,64.8,38.5,29.55,SW,225,0.0,0.0,38,0.00,,,0.00,meteohub,2013-02-23 23:52:00,
2013-02-23 15:57:00,64.8,37.9,29.55,SW,225,0.0,0.0,37,0.00,,,0.00,meteohub,2013-02-23 23:57:00,
2013-02-23 16:02:00,64.2,38.1,29.54,West,270,0.0,0.0,38,0.00,,,0.00,meteohub,2013-02-24 00:02:00,
2013-02-23 16:07:00,64.0,37.9,29.54,SW,225,0.0,0.0,38,0.00,,,0.00,meteohub,2013-02-24 00:07:00,
2013-02-23 16:12:00,63.5,36.7,29.54,West,270,0.0,0.0,37,0.00,,,0.00,meteohub,2013-02-24 00:12:00,
2013-02-23 16:17:00,63.3,36.7,29.54,SW,225,0.0,0.0,37,0.00,,,0.00,meteohub,2013-02-24 00:17:00,
2013-02-23 16:22:00,62.8,36.9,29.53,South,180,0.0,0.0,38,0.00,,,0.00,meteohub,2013-02-24 00:22:00,
2013-02-23 16:27:00,62.6,36.7,29.53,NW,315,0.0,0.0,38,0.00,,,0.00,meteohub,2013-02-24 00:27:00,
2013-02-23 16:32:00,62.2,37.0,29.52,SW,225,0.0,0.0,39,0.00,,,0.00,meteohub,2013-02-24 00:32:00,
2013-02-23 16:37:00,61.7,36.5,29.52,West,270,0.0,0.0,39,0.00,,,0.00,meteohub,2013-02-24 00:37:00,
2013-02-23 16:42:00,61.3,36.9,29.52,NW,315,0.0,0.0,40,0.00,,,0.00,meteohub,2013-02-24 00:42:00,
2013-02-23 16:47:00,61.0,35.8,29.52,South,180,0.0,0.0,39,0.00,,,0.00,meteohub,2013-02-24 00:47:00,
2013-02-23 16:52:00,60.8,36.9,29.52,SSE,158,0.0,0.0,41,0.00,,,0.00,meteohub,2013-02-24 00:52:00,
2013-02-23 16:57:00,60.4,37.2,29.52,West,270,0.0,0.0,42,0.00,,,0.00,meteohub,2013-02-24 00:57:00,
2013-02-23 17:02:00,60.4,37.2,29.52,NE,45,0.0,0.0,42,0.00,,,0.00,meteohub,2013-02-24 01:02:00,
2013-02-23 17:07:00,59.7,36.5,29.52,SW,225,0.0,0.0,42,0.00,,,0.00,meteohub,2013-02-24 01:07:00,
2013-02-23 17:12:00,59.4,37.4,29.53,SW,225,0.0,0.0,44,0.00,,,0.00,meteohub,2013-02-24 01:12:00,
2013-02-23 17:17:00,59.0,36.5,29.53,South,180,0.0,0.0,43,0.00,,,0.00,meteohub,2013-02-24 01:17:00,
2013-02-23 17:22:00,59.0,36.5,29.53,South,180,0.0,0.0,43,0.00,,,0.00,meteohub,2013-02-24 01:22:00,
2013-02-23 17:27:00,57.0,37.0,29.53,SW,225,0.0,0.0,47,0.00,,,0.00,meteohub,2013-02-24 01:27:00,
2013-02-23 17:32:00,55.8,36.3,29.53,East,90,0.0,0.0,48,0.00,,,0.00,meteohub,2013-02-24 01:32:00,
2013-02-23 17:37:00,54.7,36.0,29.55,NW,315,0.0,0.0,49,0.00,,,0.00,meteohub,2013-02-24 01:37:00,
2013-02-23 17:42:00,53.8,35.6,29.55,West,270,0.0,0.0,50,0.00,,,0.00,meteohub,2013-02-24 01:42:00,
2013-02-23 17:47:00,53.1,36.0,29.54,South,180,0.0,0.0,52,0.00,,,0.00,meteohub,2013-02-24 01:47:00,
2013-02-23 17:52:00,52.2,35.6,29.55,SW,225,0.0,0.0,53,0.00,,,0.00,meteohub,2013-02-24 01:52:00,
2013-02-23 17:57:00,51.6,36.0,29.56,South,180,0.0,0.0,55,0.00,,,0.00,meteohub,2013-02-24 01:57:00,
2013-02-23 18:02:00,51.4,35.8,29.56,West,270,0.0,0.0,55,0.00,,,0.00,meteohub,2013-02-24 02:02:00,
2013-02-23 18:07:00,51.4,35.8,29.57,West,270,0.0,0.0,55,0.00,,,0.00,meteohub,2013-02-24 02:07:00,
2013-02-23 18:12:00,50.5,36.0,29.57,West,270,0.0,0.0,57,0.00,,,0.00,meteohub,2013-02-24 02:12:00,
2013-02-23 18:17:00,50.0,35.8,29.58,West,270,0.0,0.0,58,0.00,,,0.00,meteohub,2013-02-24 02:17:00,
2013-02-23 18:22:00,49.8,36.5,29.59,West,270,0.0,0.0,60,0.00,,,0.00,meteohub,2013-02-24 02:22:00,
2013-02-23 18:27:00,49.5,36.5,29.60,NW,315,0.0,0.0,61,0.00,,,0.00,meteohub,2013-02-24 02:27:00,
2013-02-23 18:32:00,49.1,36.3,29.60,West,270,0.0,0.0,61,0.00,,,0.00,meteohub,2013-02-24 02:32:00,
2013-02-23 18:37:00,48.7,36.0,29.60,SW,225,0.0,0.0,61,0.00,,,0.00,meteohub,2013-02-24 02:37:00,
2013-02-23 18:42:00,48.6,35.8,29.60,NW,315,0.0,0.0,61,0.00,,,0.00,meteohub,2013-02-24 02:42:00,
2013-02-23 18:47:00,48.4,36.0,29.61,East,90,0.0,0.0,62,0.00,,,0.00,meteohub,2013-02-24 02:47:00,
2013-02-23 18:52:00,48.0,36.0,29.61,West,270,0.0,1.0,63,0.00,,,0.00,meteohub,2013-02-24 02:52:00,
2013-02-23 18:57:00,47.8,35.8,29.61,NNW,338,0.0,1.0,63,0.00,,,0.00,meteohub,2013-02-24 02:57:00,
2013-02-23 19:02:00,47.5,36.0,29.61,NW,315,0.0,1.0,64,0.00,,,0.00,meteohub,2013-02-24 03:02:00,
2013-02-23 19:07:00,47.5,36.0,29.62,West,270,0.0,0.0,64,0.00,,,0.00,meteohub,2013-02-24 03:07:00,
2013-02-23 19:12:00,47.3,35.8,29.62,SW,225,0.0,0.0,64,0.00,,,0.00,meteohub,2013-02-24 03:12:00,
2013-02-23 19:17:00,47.1,35.6,29.62,West,270,0.0,0.0,64,0.00,,,0.00,meteohub,2013-02-24 03:17:00,
2013-02-23 19:22:00,47.1,35.6,29.62,West,270,0.0,0.0,64,0.00,,,0.00,meteohub,2013-02-24 03:22:00,
2013-02-23 19:27:00,46.9,35.4,29.63,West,270,0.0,0.0,64,0.00,,,0.00,meteohub,2013-02-24 03:27:00,
2013-02-23 19:32:00,46.8,35.2,29.62,SW,225,0.0,0.0,64,0.00,,,0.00,meteohub,2013-02-24 03:32:00,
2013-02-23 19:37:00,46.8,35.2,29.63,South,180,0.0,0.0,64,0.00,,,0.00,meteohub,2013-02-24 03:37:00,
2013-02-23 19:42:00,46.6,35.1,29.62,NW,315,0.0,0.0,64,0.00,,,0.00,meteohub,2013-02-24 03:42:00,
2013-02-23 19:47:00,46.4,34.9,29.63,SW,225,0.0,0.0,64,0.00,,,0.00,meteohub,2013-02-24 03:47:00,
2013-02-23 19:52:00,46.4,34.9,29.63,West,270,0.0,0.0,64,0.00,,,0.00,meteohub,2013-02-24 03:52:00,
2013-02-23 19:57:00,46.2,34.3,29.63,West,270,0.0,0.0,63,0.00,,,0.00,meteohub,2013-02-24 03:57:00,
2013-02-23 20:02:00,46.0,34.2,29.63,West,270,0.0,0.0,63,0.00,,,0.00,meteohub,2013-02-24 04:02:00,
2013-02-23 20:07:00,46.0,34.2,29.63,West,270,0.0,0.0,63,0.00,,,0.00,meteohub,2013-02-24 04:07:00,
2013-02-23 20:12:00,45.9,34.0,29.63,West,270,0.0,0.0,63,0.00,,,0.00,meteohub,2013-02-24 04:12:00,
2013-02-23 20:17:00,45.9,34.0,29.64,West,270,0.0,0.0,63,0.00,,,0.00,meteohub,2013-02-24 04:17:00,
2013-02-23 20:22:00,45.7,33.8,29.64,West,270,0.0,0.0,63,0.00,,,0.00,meteohub,2013-02-24 04:22:00,
2013-02-23 20:27:00,45.7,33.8,29.64,West,270,0.0,0.0,63,0.00,,,0.00,meteohub,2013-02-24 04:27:00,
2013-02-23 20:32:00,45.5,33.6,29.65,West,270,0.0,0.0,63,0.00,,,0.00,meteohub,2013-02-24 04:32:00,
2013-02-23 20:37:00,45.5,33.6,29.64,West,270,0.0,0.0,63,0.00,,,0.00,meteohub,2013-02-24 04:37:00,
2013-02-23 20:42:00,45.3,33.4,29.65,West,270,0.0,0.0,63,0.00,,,0.00,meteohub,2013-02-24 04:42:00,
2013-02-23 20:47:00,45.5,33.6,29.65,West,270,0.0,0.0,63,0.00,,,0.00,meteohub,2013-02-24 04:47:00,
2013-02-23 20:52:00,45.5,33.6,29.65,West,270,0.0,0.0,63,0.00,,,0.00,meteohub,2013-02-24 04:52:00,
2013-02-23 20:57:00,45.5,33.6,29.65,SW,225,0.0,0.0,63,0.00,,,0.00,meteohub,2013-02-24 04:57:00,
2013-02-23 21:00:00,45.7,33.8,29.65,SW,225,0.0,0.0,63,0.00,,,0.00,meteohub,2013-02-24 05:00:00,
2013-02-23 21:01:00,45.7,33.8,29.65,SW,225,0.0,0.0,63,0.00,,,0.00,meteohub,2013-02-24 05:01:00,
2013-02-23 21:02:00,45.7,33.4,29.65,NW,315,0.0,0.0,62,0.00,,,0.00,meteohub,2013-02-24 05:02:00,
2013-02-23 21:03:00,45.9,33.6,29.65,NW,315,0.0,0.0,62,0.00,,,0.00,meteohub,2013-02-24 05:03:00,
2013-02-23 21:08:00,45.9,33.6,29.65,SW,225,0.0,0.0,62,0.00,,,0.00,meteohub,2013-02-24 05:08:00,
2013-02-23 21:13:00,46.0,33.8,29.65,West,270,0.0,0.0,62,0.00,,,0.00,meteohub,2013-02-24 05:13:00,
2013-02-23 21:18:00,46.0,33.8,29.65,West,270,0.0,0.0,62,0.00,,,0.00,meteohub,2013-02-24 05:18:00,
2013-02-23 21:23:00,46.2,34.0,29.65,West,270,0.0,0.0,62,0.00,,,0.00,meteohub,2013-02-24 05:23:00,
2013-02-23 21:28:00,46.2,34.0,29.65,West,270,0.0,0.0,62,0.00,,,0.00,meteohub,2013-02-24 05:28:00,
2013-02-23 21:33:00,46.2,33.4,29.65,SW,225,0.0,0.0,61,0.00,,,0.00,meteohub,2013-02-24 05:33:00,
2013-02-23 21:38:00,46.2,33.4,29.66,SW,225,0.0,0.0,61,0.00,,,0.00,meteohub,2013-02-24 05:38:00,
2013-02-23 21:43:00,46.2,33.4,29.65,West,270,0.0,0.0,61,0.00,,,0.00,meteohub,2013-02-24 05:43:00,
2013-02-23 21:48:00,46.4,34.2,29.66,SW,225,0.0,0.0,62,0.00,,,0.00,meteohub,2013-02-24 05:48:00,
2013-02-23 21:53:00,46.4,34.2,29.65,West,270,0.0,0.0,62,0.00,,,0.00,meteohub,2013-02-24 05:53:00,
2013-02-23 21:58:00,46.4,34.2,29.65,SW,225,0.0,0.0,62,0.00,,,0.00,meteohub,2013-02-24 05:58:00,
2013-02-23 22:03:00,46.4,34.5,29.66,SW,225,0.0,0.0,63,0.00,,,0.00,meteohub,2013-02-24 06:03:00,
2013-02-23 22:08:00,46.2,34.0,29.65,West,270,0.0,0.0,62,0.00,,,0.00,meteohub,2013-02-24 06:08:00,
2013-02-23 22:14:00,46.2,34.0,29.65,South,180,0.0,0.0,62,0.00,,,0.00,meteohub,2013-02-24 06:14:00,
2013-02-23 22:19:00,46.0,33.8,29.65,SW,225,0.0,0.0,62,0.00,,,0.00,meteohub,2013-02-24 06:19:00,
2013-02-23 22:24:00,46.0,34.2,29.65,WSW,248,0.0,0.0,63,0.00,,,0.00,meteohub,2013-02-24 06:24:00,
2013-02-23 22:29:00,46.0,34.2,29.65,West,270,0.0,0.0,63,0.00,,,0.00,meteohub,2013-02-24 06:29:00,
2013-02-23 22:34:00,46.2,34.3,29.65,SW,225,0.0,0.0,63,0.00,,,0.00,meteohub,2013-02-24 06:34:00,
2013-02-23 22:39:00,46.0,34.2,29.65,NW,315,0.0,0.0,63,0.00,,,0.00,meteohub,2013-02-24 06:39:00,
2013-02-23 22:44:00,46.0,33.8,29.65,SW,225,0.0,0.0,62,0.00,,,0.00,meteohub,2013-02-24 06:44:00,
2013-02-23 22:49:00,46.0,33.8,29.65,SW,225,0.0,0.0,62,0.00,,,0.00,meteohub,2013-02-24 06:49:00,
2013-02-23 22:54:00,46.0,33.8,29.65,NW,315,0.0,0.0,62,0.00,,,0.00,meteohub,2013-02-24 06:54:00,
2013-02-23 22:59:00,46.0,33.8,29.65,West,270,0.0,0.0,62,0.00,,,0.00,meteohub,2013-02-24 06:59:00,
2013-02-23 23:04:00,46.0,33.8,29.65,NW,315,0.0,0.0,62,0.00,,,0.00,meteohub,2013-02-24 07:04:00,
2013-02-23 23:09:00,46.0,33.3,29.65,North,0,0.0,0.0,61,0.00,,,0.00,meteohub,2013-02-24 07:09:00,
2013-02-23 23:14:00,46.0,33.3,29.65,NW,315,0.0,0.0,61,0.00,,,0.00,meteohub,2013-02-24 07:14:00,
2013-02-23 23:19:00,45.9,32.7,29.65,NW,315,0.0,0.0,60,0.00,,,0.00,meteohub,2013-02-24 07:19:00,
2013-02-23 23:24:00,45.9,32.7,29.65,NW,315,0.0,0.0,60,0.00,,,0.00,meteohub,2013-02-24 07:24:00,
2013-02-23 23:29:00,45.9,32.7,29.65,SW,225,0.0,0.0,60,0.00,,,0.00,meteohub,2013-02-24 07:29:00,
2013-02-23 23:35:00,45.9,32.7,29.65,SW,225,0.0,0.0,60,0.00,,,0.00,meteohub,2013-02-24 07:35:00,
2013-02-23 23:40:00,46.0,32.5,29.65,NW,315,0.0,0.0,59,0.00,,,0.00,meteohub,2013-02-24 07:40:00,
2013-02-23 23:45:00,46.2,32.7,29.65,NW,315,0.0,0.0,59,0.00,,,0.00,meteohub,2013-02-24 07:45:00,
2013-02-23 23:50:00,46.2,32.2,29.65,SW,225,0.0,0.0,58,0.00,,,0.00,meteohub,2013-02-24 07:50:00,
2013-02-23 23:55:00,46.2,32.2,29.65,West,270,0.0,0.0,58,0.00,,,0.00,meteohub,2013-02-24 07:55:00,